sensor_id;sensor_type;location;lat;lon;timestamp;temperature;humidity
21627;DHT22;10975;47.872;12.972;2024-03-07T00:00:47;5.60;99.90
21627;DHT22;10975;47.872;12.972;2024-03-07T00:03:14;5.60;99.90
21627;DHT22;10975;47.872;12.972;2024-03-07T00:05:41;5.60;99.90
21627;DHT22;10975;47.872;12.972;2024-03-07T00:08:08;5.50;99.90
21627;DHT22;10975;47.872;12.972;2024-03-07T00:10:36;5.50;99.90
21627;DHT22;10975;47.872;12.972;2024-03-07T00:13:03;5.50;99.90
21627;DHT22;10975;47.872;12.972;2024-03-07T00:15:30;5.50;99.90
21627;DHT22;10975;47.872;12.972;2024-03-07T00:17:57;5.50;99.90
21627;DHT22;10975;47.872;12.972;2024-03-07T00:20:26;5.50;99.90
21627;DHT22;10975;47.872;12.972;2024-03-07T00:22:53;5.40;99.90
21627;DHT22;10975;47.872;12.972;2024-03-07T00:25:20;5.40;99.90
21627;DHT22;10975;47.872;12.972;2024-03-07T00:27:48;5.40;99.90
21627;DHT22;10975;47.872;12.972;2024-03-07T00:30:16;5.40;99.90
21627;DHT22;10975;47.872;12.972;2024-03-07T00:32:47;5.40;99.90
21627;DHT22;10975;47.872;12.972;2024-03-07T00:35:15;5.50;99.90
21627;DHT22;10975;47.872;12.972;2024-03-07T00:37:42;5.40;99.90
21627;DHT22;10975;47.872;12.972;2024-03-07T00:40:09;5.40;99.90
21627;DHT22;10975;47.872;12.972;2024-03-07T00:42:37;5.40;99.90
21627;DHT22;10975;47.872;12.972;2024-03-07T00:45:04;5.40;99.90
21627;DHT22;10975;47.872;12.972;2024-03-07T00:47:32;5.40;99.90
21627;DHT22;10975;47.872;12.972;2024-03-07T00:49:59;5.40;99.90
21627;DHT22;10975;47.872;12.972;2024-03-07T00:52:27;5.40;99.90
21627;DHT22;10975;47.872;12.972;2024-03-07T00:54:53;5.40;99.90
21627;DHT22;10975;47.872;12.972;2024-03-07T00:57:20;5.40;99.90
21627;DHT22;10975;47.872;12.972;2024-03-07T00:59:47;5.50;99.90
21627;DHT22;10975;47.872;12.972;2024-03-07T01:02:15;5.40;99.90
21627;DHT22;10975;47.872;12.972;2024-03-07T01:04:43;5.40;99.90
21627;DHT22;10975;47.872;12.972;2024-03-07T01:07:10;5.40;99.90
21627;DHT22;10975;47.872;12.972;2024-03-07T01:09:37;5.40;99.90
21627;DHT22;10975;47.872;12.972;2024-03-07T01:12:04;5.40;99.90
21627;DHT22;10975;47.872;12.972;2024-03-07T01:14:32;5.40;99.90
21627;DHT22;10975;47.872;12.972;2024-03-07T01:16:59;5.40;99.90
21627;DHT22;10975;47.872;12.972;2024-03-07T01:19:26;5.40;99.90
21627;DHT22;10975;47.872;12.972;2024-03-07T01:21:53;5.40;99.90
21627;DHT22;10975;47.872;12.972;2024-03-07T01:24:20;5.40;99.90
21627;DHT22;10975;47.872;12.972;2024-03-07T01:26:47;5.50;99.90
21627;DHT22;10975;47.872;12.972;2024-03-07T01:29:15;5.50;99.90
21627;DHT22;10975;47.872;12.972;2024-03-07T01:31:42;5.50;99.90
21627;DHT22;10975;47.872;12.972;2024-03-07T01:34:09;5.60;99.90
21627;DHT22;10975;47.872;12.972;2024-03-07T01:36:36;5.60;99.90
21627;DHT22;10975;47.872;12.972;2024-03-07T01:39:03;5.60;99.90
21627;DHT22;10975;47.872;12.972;2024-03-07T01:41:31;5.50;99.90
21627;DHT22;10975;47.872;12.972;2024-03-07T01:43:58;5.50;99.90
21627;DHT22;10975;47.872;12.972;2024-03-07T01:46:25;5.50;99.90
21627;DHT22;10975;47.872;12.972;2024-03-07T01:48:52;5.50;99.90
21627;DHT22;10975;47.872;12.972;2024-03-07T01:51:20;5.50;99.90
21627;DHT22;10975;47.872;12.972;2024-03-07T01:53:48;5.50;99.90
21627;DHT22;10975;47.872;12.972;2024-03-07T01:56:16;5.50;99.90
21627;DHT22;10975;47.872;12.972;2024-03-07T01:58:46;5.50;99.90
21627;DHT22;10975;47.872;12.972;2024-03-07T02:01:14;5.50;99.90
21627;DHT22;10975;47.872;12.972;2024-03-07T02:03:42;5.50;99.90
21627;DHT22;10975;47.872;12.972;2024-03-07T02:06:10;5.50;99.90
21627;DHT22;10975;47.872;12.972;2024-03-07T02:08:37;5.50;99.90
21627;DHT22;10975;47.872;12.972;2024-03-07T02:11:04;5.40;99.90
21627;DHT22;10975;47.872;12.972;2024-03-07T02:13:31;5.40;99.90
21627;DHT22;10975;47.872;12.972;2024-03-07T02:15:58;5.40;99.90
21627;DHT22;10975;47.872;12.972;2024-03-07T02:18:25;5.40;99.90
21627;DHT22;10975;47.872;12.972;2024-03-07T02:20:53;5.40;99.90
21627;DHT22;10975;47.872;12.972;2024-03-07T02:23:21;5.40;99.90
21627;DHT22;10975;47.872;12.972;2024-03-07T02:25:48;5.50;99.90
21627;DHT22;10975;47.872;12.972;2024-03-07T02:28:15;5.50;99.90
21627;DHT22;10975;47.872;12.972;2024-03-07T02:30:42;5.50;99.90
21627;DHT22;10975;47.872;12.972;2024-03-07T02:33:12;5.50;99.90
21627;DHT22;10975;47.872;12.972;2024-03-07T02:35:39;5.50;99.90
21627;DHT22;10975;47.872;12.972;2024-03-07T02:38:06;5.50;99.90
21627;DHT22;10975;47.872;12.972;2024-03-07T02:40:33;5.50;99.90
21627;DHT22;10975;47.872;12.972;2024-03-07T02:43:00;5.50;99.90
21627;DHT22;10975;47.872;12.972;2024-03-07T02:45:30;5.50;99.90
21627;DHT22;10975;47.872;12.972;2024-03-07T02:47:57;5.50;99.90
21627;DHT22;10975;47.872;12.972;2024-03-07T02:50:24;5.50;99.90
21627;DHT22;10975;47.872;12.972;2024-03-07T02:52:51;5.50;99.90
21627;DHT22;10975;47.872;12.972;2024-03-07T02:55:19;5.50;99.90
21627;DHT22;10975;47.872;12.972;2024-03-07T02:57:47;5.50;99.90
21627;DHT22;10975;47.872;12.972;2024-03-07T03:00:14;5.60;99.90
21627;DHT22;10975;47.872;12.972;2024-03-07T03:02:53;5.60;99.90
21627;DHT22;10975;47.872;12.972;2024-03-07T03:05:20;5.60;99.90
21627;DHT22;10975;47.872;12.972;2024-03-07T03:07:47;5.50;99.90
21627;DHT22;10975;47.872;12.972;2024-03-07T03:10:25;5.50;99.90
21627;DHT22;10975;47.872;12.972;2024-03-07T03:13:00;5.50;99.90
21627;DHT22;10975;47.872;12.972;2024-03-07T03:15:28;5.40;99.90
21627;DHT22;10975;47.872;12.972;2024-03-07T03:17:56;5.40;99.90
21627;DHT22;10975;47.872;12.972;2024-03-07T03:20:27;5.40;99.90
21627;DHT22;10975;47.872;12.972;2024-03-07T03:23:06;5.40;99.90
21627;DHT22;10975;47.872;12.972;2024-03-07T03:25:47;5.40;99.90
21627;DHT22;10975;47.872;12.972;2024-03-07T03:28:18;5.40;99.90
21627;DHT22;10975;47.872;12.972;2024-03-07T03:30:47;5.30;99.90
21627;DHT22;10975;47.872;12.972;2024-03-07T03:33:14;5.40;99.90
21627;DHT22;10975;47.872;12.972;2024-03-07T03:35:42;5.40;99.90
21627;DHT22;10975;47.872;12.972;2024-03-07T03:38:09;5.40;99.90
21627;DHT22;10975;47.872;12.972;2024-03-07T03:40:36;5.40;99.90
21627;DHT22;10975;47.872;12.972;2024-03-07T03:43:03;5.40;99.90
21627;DHT22;10975;47.872;12.972;2024-03-07T03:45:30;5.40;99.90
21627;DHT22;10975;47.872;12.972;2024-03-07T03:47:58;5.40;99.90
21627;DHT22;10975;47.872;12.972;2024-03-07T03:50:26;5.40;99.90
21627;DHT22;10975;47.872;12.972;2024-03-07T03:52:52;5.40;99.90
21627;DHT22;10975;47.872;12.972;2024-03-07T03:55:19;5.40;99.90
21627;DHT22;10975;47.872;12.972;2024-03-07T03:57:48;5.40;99.90
21627;DHT22;10975;47.872;12.972;2024-03-07T04:00:16;5.40;99.90
21627;DHT22;10975;47.872;12.972;2024-03-07T04:02:45;5.40;99.90
21627;DHT22;10975;47.872;12.972;2024-03-07T04:05:18;5.40;99.90
21627;DHT22;10975;47.872;12.972;2024-03-07T04:07:46;5.40;99.90
21627;DHT22;10975;47.872;12.972;2024-03-07T04:10:14;5.40;99.90
21627;DHT22;10975;47.872;12.972;2024-03-07T04:12:41;5.50;99.90
21627;DHT22;10975;47.872;12.972;2024-03-07T04:15:11;5.40;99.90
21627;DHT22;10975;47.872;12.972;2024-03-07T04:17:38;5.40;99.90
21627;DHT22;10975;47.872;12.972;2024-03-07T04:20:06;5.40;99.90
21627;DHT22;10975;47.872;12.972;2024-03-07T04:22:34;5.30;99.90
21627;DHT22;10975;47.872;12.972;2024-03-07T04:25:02;5.30;99.90
21627;DHT22;10975;47.872;12.972;2024-03-07T04:27:29;5.30;99.90
21627;DHT22;10975;47.872;12.972;2024-03-07T04:29:56;5.30;99.90
21627;DHT22;10975;47.872;12.972;2024-03-07T04:32:23;5.30;99.90
21627;DHT22;10975;47.872;12.972;2024-03-07T04:34:50;5.30;99.90
21627;DHT22;10975;47.872;12.972;2024-03-07T04:37:17;5.30;99.90
21627;DHT22;10975;47.872;12.972;2024-03-07T04:39:44;5.30;99.90
21627;DHT22;10975;47.872;12.972;2024-03-07T04:42:10;5.30;99.90
21627;DHT22;10975;47.872;12.972;2024-03-07T04:44:37;5.30;99.90
21627;DHT22;10975;47.872;12.972;2024-03-07T04:47:06;5.40;99.90
21627;DHT22;10975;47.872;12.972;2024-03-07T04:49:34;5.40;99.90
21627;DHT22;10975;47.872;12.972;2024-03-07T04:52:02;5.40;99.90
21627;DHT22;10975;47.872;12.972;2024-03-07T04:54:30;5.50;99.90
21627;DHT22;10975;47.872;12.972;2024-03-07T04:57:01;5.50;99.90
21627;DHT22;10975;47.872;12.972;2024-03-07T04:59:28;5.50;99.90
21627;DHT22;10975;47.872;12.972;2024-03-07T05:01:55;5.50;99.90
21627;DHT22;10975;47.872;12.972;2024-03-07T05:04:22;5.50;99.90
21627;DHT22;10975;47.872;12.972;2024-03-07T05:06:50;5.60;99.90
21627;DHT22;10975;47.872;12.972;2024-03-07T05:09:17;5.60;99.90
21627;DHT22;10975;47.872;12.972;2024-03-07T05:11:53;5.60;99.90
21627;DHT22;10975;47.872;12.972;2024-03-07T05:14:21;5.60;99.90
21627;DHT22;10975;47.872;12.972;2024-03-07T05:16:54;5.50;99.90
21627;DHT22;10975;47.872;12.972;2024-03-07T05:19:35;5.50;99.90
21627;DHT22;10975;47.872;12.972;2024-03-07T05:22:02;5.50;99.90
21627;DHT22;10975;47.872;12.972;2024-03-07T05:24:32;5.50;99.90
21627;DHT22;10975;47.872;12.972;2024-03-07T05:27:00;5.50;99.90
21627;DHT22;10975;47.872;12.972;2024-03-07T05:29:28;5.60;99.90
21627;DHT22;10975;47.872;12.972;2024-03-07T05:31:55;5.60;99.90
21627;DHT22;10975;47.872;12.972;2024-03-07T05:34:21;5.60;99.90
21627;DHT22;10975;47.872;12.972;2024-03-07T05:36:50;5.50;99.90
21627;DHT22;10975;47.872;12.972;2024-03-07T05:39:18;5.50;99.90
21627;DHT22;10975;47.872;12.972;2024-03-07T05:41:45;5.50;99.90
21627;DHT22;10975;47.872;12.972;2024-03-07T05:44:13;5.50;99.90
21627;DHT22;10975;47.872;12.972;2024-03-07T05:46:41;5.50;99.90
21627;DHT22;10975;47.872;12.972;2024-03-07T05:49:08;5.60;99.90
21627;DHT22;10975;47.872;12.972;2024-03-07T05:51:35;5.60;99.90
21627;DHT22;10975;47.872;12.972;2024-03-07T05:54:03;5.60;99.90
21627;DHT22;10975;47.872;12.972;2024-03-07T05:56:33;5.60;99.90
21627;DHT22;10975;47.872;12.972;2024-03-07T05:59:03;5.50;99.90
21627;DHT22;10975;47.872;12.972;2024-03-07T06:01:31;5.50;99.90
21627;DHT22;10975;47.872;12.972;2024-03-07T06:04:02;5.50;99.90
21627;DHT22;10975;47.872;12.972;2024-03-07T06:06:29;5.40;99.90
21627;DHT22;10975;47.872;12.972;2024-03-07T06:09:00;5.40;99.90
21627;DHT22;10975;47.872;12.972;2024-03-07T06:11:29;5.40;99.90
21627;DHT22;10975;47.872;12.972;2024-03-07T06:13:56;5.40;99.90
21627;DHT22;10975;47.872;12.972;2024-03-07T06:16:24;5.40;99.90
21627;DHT22;10975;47.872;12.972;2024-03-07T06:18:51;5.40;99.90
21627;DHT22;10975;47.872;12.972;2024-03-07T06:21:18;5.40;99.90
21627;DHT22;10975;47.872;12.972;2024-03-07T06:23:45;5.50;99.90
21627;DHT22;10975;47.872;12.972;2024-03-07T06:26:14;5.50;99.90
21627;DHT22;10975;47.872;12.972;2024-03-07T06:28:43;5.50;99.90
21627;DHT22;10975;47.872;12.972;2024-03-07T06:31:11;5.50;99.90
21627;DHT22;10975;47.872;12.972;2024-03-07T06:33:38;5.50;99.90
21627;DHT22;10975;47.872;12.972;2024-03-07T06:36:05;5.50;99.90
21627;DHT22;10975;47.872;12.972;2024-03-07T06:38:32;5.50;99.90
21627;DHT22;10975;47.872;12.972;2024-03-07T06:40:59;5.50;99.90
21627;DHT22;10975;47.872;12.972;2024-03-07T06:43:26;5.40;99.90
21627;DHT22;10975;47.872;12.972;2024-03-07T06:45:53;5.40;99.90
21627;DHT22;10975;47.872;12.972;2024-03-07T06:48:21;5.50;99.90
21627;DHT22;10975;47.872;12.972;2024-03-07T06:50:48;5.50;99.90
21627;DHT22;10975;47.872;12.972;2024-03-07T06:53:15;5.60;99.90
21627;DHT22;10975;47.872;12.972;2024-03-07T06:55:42;5.60;99.90
21627;DHT22;10975;47.872;12.972;2024-03-07T06:58:08;5.60;99.90
21627;DHT22;10975;47.872;12.972;2024-03-07T07:00:37;5.60;99.90
21627;DHT22;10975;47.872;12.972;2024-03-07T07:03:05;5.60;99.90
21627;DHT22;10975;47.872;12.972;2024-03-07T07:05:31;5.70;99.90
21627;DHT22;10975;47.872;12.972;2024-03-07T07:08:00;5.70;99.90
21627;DHT22;10975;47.872;12.972;2024-03-07T07:10:27;5.70;99.90
21627;DHT22;10975;47.872;12.972;2024-03-07T07:12:54;5.80;99.90
21627;DHT22;10975;47.872;12.972;2024-03-07T07:15:21;5.80;99.90
21627;DHT22;10975;47.872;12.972;2024-03-07T07:17:49;5.80;99.90
21627;DHT22;10975;47.872;12.972;2024-03-07T07:20:17;5.80;99.90
21627;DHT22;10975;47.872;12.972;2024-03-07T07:22:45;5.80;99.90
21627;DHT22;10975;47.872;12.972;2024-03-07T07:25:16;5.90;99.90
21627;DHT22;10975;47.872;12.972;2024-03-07T07:27:45;5.90;99.90
21627;DHT22;10975;47.872;12.972;2024-03-07T07:30:14;5.90;99.90
21627;DHT22;10975;47.872;12.972;2024-03-07T07:32:42;6.00;99.90
21627;DHT22;10975;47.872;12.972;2024-03-07T07:35:10;6.10;99.90
21627;DHT22;10975;47.872;12.972;2024-03-07T07:37:47;6.20;99.90
21627;DHT22;10975;47.872;12.972;2024-03-07T07:40:19;6.20;99.90
21627;DHT22;10975;47.872;12.972;2024-03-07T07:42:50;6.30;99.90
21627;DHT22;10975;47.872;12.972;2024-03-07T07:45:20;6.30;99.90
21627;DHT22;10975;47.872;12.972;2024-03-07T07:47:51;6.30;99.90
21627;DHT22;10975;47.872;12.972;2024-03-07T07:50:21;6.40;99.90
21627;DHT22;10975;47.872;12.972;2024-03-07T07:52:49;6.40;99.90
21627;DHT22;10975;47.872;12.972;2024-03-07T07:55:17;6.40;99.90
21627;DHT22;10975;47.872;12.972;2024-03-07T07:57:45;6.50;99.90
21627;DHT22;10975;47.872;12.972;2024-03-07T08:00:15;6.60;99.90
21627;DHT22;10975;47.872;12.972;2024-03-07T08:03:24;6.80;99.90
21627;DHT22;10975;47.872;12.972;2024-03-07T08:05:44;6.90;99.90
21627;DHT22;10975;47.872;12.972;2024-03-07T08:08:14;7.00;99.90
21627;DHT22;10975;47.872;12.972;2024-03-07T08:10:43;7.00;99.90
21627;DHT22;10975;47.872;12.972;2024-03-07T08:13:12;7.00;99.90
21627;DHT22;10975;47.872;12.972;2024-03-07T08:15:40;6.90;99.90
21627;DHT22;10975;47.872;12.972;2024-03-07T08:18:08;7.00;99.90
21627;DHT22;10975;47.872;12.972;2024-03-07T08:20:37;7.00;99.90
21627;DHT22;10975;47.872;12.972;2024-03-07T08:23:06;7.10;99.90
21627;DHT22;10975;47.872;12.972;2024-03-07T08:25:33;7.00;99.90
21627;DHT22;10975;47.872;12.972;2024-03-07T08:28:00;7.30;99.90
21627;DHT22;10975;47.872;12.972;2024-03-07T08:30:27;7.50;99.90
21627;DHT22;10975;47.872;12.972;2024-03-07T08:32:56;7.70;99.90
21627;DHT22;10975;47.872;12.972;2024-03-07T08:35:23;7.90;99.90
21627;DHT22;10975;47.872;12.972;2024-03-07T08:37:52;8.10;99.90
21627;DHT22;10975;47.872;12.972;2024-03-07T08:40:25;8.00;99.90
21627;DHT22;10975;47.872;12.972;2024-03-07T08:42:55;7.90;99.90
21627;DHT22;10975;47.872;12.972;2024-03-07T08:45:23;8.00;99.90
21627;DHT22;10975;47.872;12.972;2024-03-07T08:47:55;8.20;99.90
21627;DHT22;10975;47.872;12.972;2024-03-07T08:50:24;8.30;99.90
21627;DHT22;10975;47.872;12.972;2024-03-07T08:52:53;8.40;99.90
21627;DHT22;10975;47.872;12.972;2024-03-07T08:55:22;8.40;99.90
21627;DHT22;10975;47.872;12.972;2024-03-07T08:57:49;8.30;99.90
21627;DHT22;10975;47.872;12.972;2024-03-07T09:00:17;8.10;99.90
21627;DHT22;10975;47.872;12.972;2024-03-07T09:02:55;8.10;99.90
21627;DHT22;10975;47.872;12.972;2024-03-07T09:05:26;8.20;99.90
21627;DHT22;10975;47.872;12.972;2024-03-07T09:07:54;8.40;99.90
21627;DHT22;10975;47.872;12.972;2024-03-07T09:10:21;8.50;99.90
21627;DHT22;10975;47.872;12.972;2024-03-07T09:12:50;8.60;99.90
21627;DHT22;10975;47.872;12.972;2024-03-07T09:15:18;8.60;99.90
21627;DHT22;10975;47.872;12.972;2024-03-07T09:17:48;8.50;99.90
21627;DHT22;10975;47.872;12.972;2024-03-07T09:20:15;8.30;99.90
21627;DHT22;10975;47.872;12.972;2024-03-07T09:22:46;8.10;99.90
21627;DHT22;10975;47.872;12.972;2024-03-07T09:25:14;8.20;99.90
21627;DHT22;10975;47.872;12.972;2024-03-07T09:27:43;8.20;99.90
21627;DHT22;10975;47.872;12.972;2024-03-07T09:30:10;8.30;99.90
21627;DHT22;10975;47.872;12.972;2024-03-07T09:32:43;8.30;99.90
21627;DHT22;10975;47.872;12.972;2024-03-07T09:35:10;8.50;99.90
21627;DHT22;10975;47.872;12.972;2024-03-07T09:37:42;8.60;99.90
21627;DHT22;10975;47.872;12.972;2024-03-07T09:40:11;8.50;99.90
21627;DHT22;10975;47.872;12.972;2024-03-07T09:42:47;8.40;99.90
21627;DHT22;10975;47.872;12.972;2024-03-07T09:45:20;8.30;99.90
21627;DHT22;10975;47.872;12.972;2024-03-07T09:47:50;8.50;99.90
21627;DHT22;10975;47.872;12.972;2024-03-07T09:50:20;8.70;99.90
21627;DHT22;10975;47.872;12.972;2024-03-07T09:52:52;8.80;99.90
21627;DHT22;10975;47.872;12.972;2024-03-07T09:55:21;9.00;99.90
21627;DHT22;10975;47.872;12.972;2024-03-07T09:57:53;9.10;99.90
21627;DHT22;10975;47.872;12.972;2024-03-07T10:00:23;9.00;99.90
21627;DHT22;10975;47.872;12.972;2024-03-07T10:02:57;9.00;99.90
21627;DHT22;10975;47.872;12.972;2024-03-07T10:05:27;9.10;99.90
21627;DHT22;10975;47.872;12.972;2024-03-07T10:07:55;9.20;99.90
21627;DHT22;10975;47.872;12.972;2024-03-07T10:10:22;9.30;99.90
21627;DHT22;10975;47.872;12.972;2024-03-07T10:12:50;9.40;99.90
21627;DHT22;10975;47.872;12.972;2024-03-07T10:15:19;9.50;99.90
21627;DHT22;10975;47.872;12.972;2024-03-07T10:17:46;9.40;99.90
21627;DHT22;10975;47.872;12.972;2024-03-07T10:20:18;9.30;99.90
21627;DHT22;10975;47.872;12.972;2024-03-07T10:22:47;9.10;99.90
21627;DHT22;10975;47.872;12.972;2024-03-07T10:25:17;9.00;99.90
21627;DHT22;10975;47.872;12.972;2024-03-07T10:27:48;8.90;99.90
21627;DHT22;10975;47.872;12.972;2024-03-07T10:30:16;8.70;99.90
21627;DHT22;10975;47.872;12.972;2024-03-07T10:32:58;8.60;99.90
21627;DHT22;10975;47.872;12.972;2024-03-07T10:35:28;8.80;99.90
21627;DHT22;10975;47.872;12.972;2024-03-07T10:37:56;8.90;99.90
21627;DHT22;10975;47.872;12.972;2024-03-07T10:40:28;8.90;99.90
21627;DHT22;10975;47.872;12.972;2024-03-07T10:42:57;9.00;99.90
21627;DHT22;10975;47.872;12.972;2024-03-07T10:45:28;9.10;99.90
21627;DHT22;10975;47.872;12.972;2024-03-07T10:47:57;9.00;99.90
21627;DHT22;10975;47.872;12.972;2024-03-07T10:50:30;8.80;99.90
21627;DHT22;10975;47.872;12.972;2024-03-07T10:53:20;8.70;99.90
21627;DHT22;10975;47.872;12.972;2024-03-07T10:58:55;8.80;99.90
21627;DHT22;10975;47.872;12.972;2024-03-07T11:01:26;8.90;99.90
21627;DHT22;10975;47.872;12.972;2024-03-07T11:03:57;8.80;99.90
21627;DHT22;10975;47.872;12.972;2024-03-07T11:10:23;8.80;99.90
21627;DHT22;10975;47.872;12.972;2024-03-07T11:13:08;8.70;99.90
21627;DHT22;10975;47.872;12.972;2024-03-07T11:16:06;8.70;99.90
21627;DHT22;10975;47.872;12.972;2024-03-07T11:19:27;8.90;99.90
21627;DHT22;10975;47.872;12.972;2024-03-07T11:22:07;8.90;99.90
21627;DHT22;10975;47.872;12.972;2024-03-07T11:28:39;8.90;99.90
21627;DHT22;10975;47.872;12.972;2024-03-07T11:35:03;8.90;99.90
21627;DHT22;10975;47.872;12.972;2024-03-07T11:38:15;9.10;99.90
21627;DHT22;10975;47.872;12.972;2024-03-07T11:41:41;9.10;99.90
21627;DHT22;10975;47.872;12.972;2024-03-07T11:44:41;9.10;99.90
21627;DHT22;10975;47.872;12.972;2024-03-07T11:47:43;9.20;99.90
21627;DHT22;10975;47.872;12.972;2024-03-07T11:50:46;9.20;99.90
21627;DHT22;10975;47.872;12.972;2024-03-07T11:53:23;9.10;99.90
21627;DHT22;10975;47.872;12.972;2024-03-07T11:55:49;9.10;99.90
21627;DHT22;10975;47.872;12.972;2024-03-07T11:58:18;9.20;99.90
21627;DHT22;10975;47.872;12.972;2024-03-07T12:03:54;9.40;99.90
21627;DHT22;10975;47.872;12.972;2024-03-07T12:06:24;9.40;99.90
21627;DHT22;10975;47.872;12.972;2024-03-07T12:09:10;9.40;99.90
21627;DHT22;10975;47.872;12.972;2024-03-07T12:12:08;9.30;99.90
21627;DHT22;10975;47.872;12.972;2024-03-07T12:14:41;9.30;99.90
21627;DHT22;10975;47.872;12.972;2024-03-07T12:17:09;9.50;99.90
21627;DHT22;10975;47.872;12.972;2024-03-07T12:19:58;9.80;99.90
21627;DHT22;10975;47.872;12.972;2024-03-07T12:23:02;9.90;99.90
21627;DHT22;10975;47.872;12.972;2024-03-07T12:25:35;9.80;99.90
21627;DHT22;10975;47.872;12.972;2024-03-07T12:28:09;9.70;99.90
21627;DHT22;10975;47.872;12.972;2024-03-07T12:30:53;9.70;99.90
21627;DHT22;10975;47.872;12.972;2024-03-07T12:33:22;9.70;99.90
21627;DHT22;10975;47.872;12.972;2024-03-07T12:35:55;9.70;99.90
21627;DHT22;10975;47.872;12.972;2024-03-07T12:38:37;9.70;99.90
21627;DHT22;10975;47.872;12.972;2024-03-07T12:41:12;9.80;99.90
21627;DHT22;10975;47.872;12.972;2024-03-07T12:43:44;9.90;99.90
21627;DHT22;10975;47.872;12.972;2024-03-07T12:46:17;10.10;99.90
21627;DHT22;10975;47.872;12.972;2024-03-07T12:48:47;10.20;99.90
21627;DHT22;10975;47.872;12.972;2024-03-07T12:51:24;10.40;99.90
21627;DHT22;10975;47.872;12.972;2024-03-07T12:54:06;10.50;99.90
21627;DHT22;10975;47.872;12.972;2024-03-07T12:57:25;10.30;99.90
21627;DHT22;10975;47.872;12.972;2024-03-07T13:00:18;10.20;99.90
21627;DHT22;10975;47.872;12.972;2024-03-07T13:03:04;10.00;99.90
21627;DHT22;10975;47.872;12.972;2024-03-07T13:05:45;9.80;99.90
21627;DHT22;10975;47.872;12.972;2024-03-07T13:08:23;9.70;99.90
21627;DHT22;10975;47.872;12.972;2024-03-07T13:10:59;9.60;99.90
21627;DHT22;10975;47.872;12.972;2024-03-07T13:13:45;9.70;99.90
21627;DHT22;10975;47.872;12.972;2024-03-07T13:16:13;9.70;99.90
21627;DHT22;10975;47.872;12.972;2024-03-07T13:18:46;9.80;99.90
21627;DHT22;10975;47.872;12.972;2024-03-07T13:21:36;9.80;99.90
21627;DHT22;10975;47.872;12.972;2024-03-07T13:24:04;9.70;99.90
21627;DHT22;10975;47.872;12.972;2024-03-07T13:26:35;9.50;99.90
21627;DHT22;10975;47.872;12.972;2024-03-07T13:29:09;9.50;99.90
21627;DHT22;10975;47.872;12.972;2024-03-07T13:31:39;9.40;99.90
21627;DHT22;10975;47.872;12.972;2024-03-07T13:34:15;9.50;99.90
21627;DHT22;10975;47.872;12.972;2024-03-07T13:36:45;9.20;99.90
21627;DHT22;10975;47.872;12.972;2024-03-07T13:39:13;9.10;99.90
21627;DHT22;10975;47.872;12.972;2024-03-07T13:41:41;9.10;99.90
21627;DHT22;10975;47.872;12.972;2024-03-07T13:44:08;9.20;99.90
21627;DHT22;10975;47.872;12.972;2024-03-07T13:46:36;9.10;99.90
21627;DHT22;10975;47.872;12.972;2024-03-07T13:49:04;9.10;99.90
21627;DHT22;10975;47.872;12.972;2024-03-07T13:51:35;9.10;99.90
21627;DHT22;10975;47.872;12.972;2024-03-07T13:54:03;9.00;99.90
21627;DHT22;10975;47.872;12.972;2024-03-07T14:00:04;9.00;99.90
21627;DHT22;10975;47.872;12.972;2024-03-07T14:03:08;8.80;99.90
21627;DHT22;10975;47.872;12.972;2024-03-07T14:05:59;8.80;99.90
21627;DHT22;10975;47.872;12.972;2024-03-07T14:20:35;8.90;99.90
21627;DHT22;10975;47.872;12.972;2024-03-07T14:31:06;8.60;99.90
21627;DHT22;10975;47.872;12.972;2024-03-07T14:33:48;8.40;99.90
21627;DHT22;10975;47.872;12.972;2024-03-07T14:36:18;8.40;99.90
21627;DHT22;10975;47.872;12.972;2024-03-07T14:38:56;8.50;99.90
21627;DHT22;10975;47.872;12.972;2024-03-07T14:41:58;8.50;99.90
21627;DHT22;10975;47.872;12.972;2024-03-07T14:44:25;8.50;99.90
21627;DHT22;10975;47.872;12.972;2024-03-07T14:47:02;8.40;99.90
21627;DHT22;10975;47.872;12.972;2024-03-07T14:49:34;8.30;99.90
21627;DHT22;10975;47.872;12.972;2024-03-07T14:52:01;8.40;99.90
21627;DHT22;10975;47.872;12.972;2024-03-07T14:54:30;8.50;99.90
21627;DHT22;10975;47.872;12.972;2024-03-07T14:56:57;8.50;99.90
21627;DHT22;10975;47.872;12.972;2024-03-07T14:59:24;8.60;99.90
21627;DHT22;10975;47.872;12.972;2024-03-07T15:01:52;8.50;99.90
21627;DHT22;10975;47.872;12.972;2024-03-07T15:04:19;8.50;99.90
21627;DHT22;10975;47.872;12.972;2024-03-07T15:06:47;8.50;99.90
21627;DHT22;10975;47.872;12.972;2024-03-07T15:09:14;8.30;99.90
21627;DHT22;10975;47.872;12.972;2024-03-07T15:11:41;8.30;99.90
21627;DHT22;10975;47.872;12.972;2024-03-07T15:14:09;8.30;99.90
21627;DHT22;10975;47.872;12.972;2024-03-07T15:16:37;8.30;99.90
21627;DHT22;10975;47.872;12.972;2024-03-07T15:19:08;8.30;99.90
21627;DHT22;10975;47.872;12.972;2024-03-07T15:21:44;8.30;99.90
21627;DHT22;10975;47.872;12.972;2024-03-07T15:24:11;8.10;99.90
21627;DHT22;10975;47.872;12.972;2024-03-07T15:26:37;8.00;99.90
21627;DHT22;10975;47.872;12.972;2024-03-07T15:29:05;8.00;99.90
21627;DHT22;10975;47.872;12.972;2024-03-07T15:31:33;7.90;99.90
21627;DHT22;10975;47.872;12.972;2024-03-07T15:34:02;7.90;99.90
21627;DHT22;10975;47.872;12.972;2024-03-07T15:36:30;7.90;99.90
21627;DHT22;10975;47.872;12.972;2024-03-07T15:38:57;7.90;99.90
21627;DHT22;10975;47.872;12.972;2024-03-07T15:41:24;7.90;99.90
21627;DHT22;10975;47.872;12.972;2024-03-07T15:43:51;7.80;99.90
21627;DHT22;10975;47.872;12.972;2024-03-07T15:46:18;7.80;99.90
21627;DHT22;10975;47.872;12.972;2024-03-07T15:48:45;7.70;99.90
21627;DHT22;10975;47.872;12.972;2024-03-07T15:51:16;7.70;99.90
21627;DHT22;10975;47.872;12.972;2024-03-07T15:53:44;7.50;99.90
21627;DHT22;10975;47.872;12.972;2024-03-07T15:56:11;7.40;99.90
21627;DHT22;10975;47.872;12.972;2024-03-07T15:58:38;7.40;99.90
21627;DHT22;10975;47.872;12.972;2024-03-07T16:01:05;7.40;99.90
21627;DHT22;10975;47.872;12.972;2024-03-07T16:03:33;7.30;99.90
21627;DHT22;10975;47.872;12.972;2024-03-07T16:06:00;7.30;99.90
21627;DHT22;10975;47.872;12.972;2024-03-07T16:08:27;7.30;99.90
21627;DHT22;10975;47.872;12.972;2024-03-07T16:10:53;7.20;99.90
21627;DHT22;10975;47.872;12.972;2024-03-07T16:13:20;7.20;99.90
21627;DHT22;10975;47.872;12.972;2024-03-07T16:15:48;7.20;99.90
21627;DHT22;10975;47.872;12.972;2024-03-07T16:18:16;7.20;99.90
21627;DHT22;10975;47.872;12.972;2024-03-07T16:20:44;7.10;99.90
21627;DHT22;10975;47.872;12.972;2024-03-07T16:23:14;7.20;99.90
21627;DHT22;10975;47.872;12.972;2024-03-07T16:25:43;7.20;99.90
21627;DHT22;10975;47.872;12.972;2024-03-07T16:28:11;7.10;99.90
21627;DHT22;10975;47.872;12.972;2024-03-07T16:30:39;7.10;99.90
21627;DHT22;10975;47.872;12.972;2024-03-07T16:33:12;7.00;99.90